Time;durP1;ratioP1;P1;durP2;ratioP2;P2;SDS_P1;SDS_P2;PMS_P1;PMS_P2;Temp;Humidity;BMP_temperature;BMP_pressure;BME280_temperature;BME280_humidity;BME280_pressure;Samples;Min_cycle;Max_cycle;Signal;HPM_P1;HPM_P2
2021/08/03 00:00:11;;;;;;;4.23;2.20;;;15.30;99.90;;;;;;6160021;23;20439;-68
2021/08/03 00:02:45;;;;;;;3.27;2.30;;;15.30;99.90;;;;;;6196344;23;20409;-68
2021/08/03 00:05:20;;;;;;;3.60;2.27;;;15.30;99.90;;;;;;6160224;23;20753;-68
2021/08/03 00:07:56;;;;;;;2.80;2.13;;;15.30;99.90;;;;;;6196826;23;20387;-68
2021/08/03 00:10:25;;;;;;;3.20;2.45;;;15.30;99.90;;;;;;6195193;23;20395;-68
2021/08/03 00:12:55;;;;;;;2.70;2.50;;;15.40;99.90;;;;;;6159989;23;20188;-69
2021/08/03 00:15:24;;;;;;;3.38;2.00;;;15.40;99.90;;;;;;6158780;23;20488;-68
2021/08/03 00:17:56;;;;;;;2.80;2.50;;;15.50;99.90;;;;;;6160021;23;20177;-68
2021/08/03 00:20:25;;;;;;;2.80;1.87;;;15.50;99.90;;;;;;6196799;23;20903;-68
2021/08/03 00:23:00;;;;;;;3.27;2.30;;;15.40;99.90;;;;;;6196560;23;20972;-68
2021/08/03 00:25:28;;;;;;;3.03;2.00;;;15.40;99.90;;;;;;6185768;23;20397;-68
2021/08/03 00:27:57;;;;;;;2.80;2.23;;;15.30;99.90;;;;;;6196918;23;20691;-68
2021/08/03 00:30:26;;;;;;;3.63;2.40;;;15.30;99.90;;;;;;6186337;23;20415;-68
2021/08/03 00:32:56;;;;;;;3.63;2.27;;;15.30;99.90;;;;;;6159831;23;20461;-68
2021/08/03 00:35:24;;;;;;;3.97;2.23;;;15.20;99.90;;;;;;6186639;23;20439;-68
2021/08/03 00:37:53;;;;;;;2.13;1.90;;;15.20;99.90;;;;;;6196229;23;20499;-68
2021/08/03 00:40:24;;;;;;;2.23;2.00;;;15.20;99.90;;;;;;6190461;23;20977;-69
2021/08/03 00:42:53;;;;;;;2.37;1.93;;;15.20;99.90;;;;;;6185928;23;20426;-68
2021/08/03 00:45:22;;;;;;;3.70;2.60;;;15.10;99.90;;;;;;6159550;23;20415;-68
2021/08/03 00:47:52;;;;;;;2.90;2.43;;;15.10;99.90;;;;;;6159644;23;20878;-68
2021/08/03 00:50:22;;;;;;;3.03;2.40;;;15.10;99.90;;;;;;6159399;23;20534;-68
2021/08/03 00:52:51;;;;;;;3.03;2.40;;;15.10;99.90;;;;;;6196378;23;20391;-68
2021/08/03 00:55:20;;;;;;;2.83;2.30;;;15.10;99.90;;;;;;6159937;23;20416;-68
2021/08/03 00:57:54;;;;;;;2.80;2.60;;;15.00;99.90;;;;;;6159540;23;20393;-68
2021/08/03 01:00:25;;;;;;;2.83;2.50;;;15.00;99.90;;;;;;6159691;23;20411;-68
2021/08/03 01:02:53;;;;;;;2.60;2.37;;;15.00;99.90;;;;;;6195688;23;20403;-68
2021/08/03 01:05:25;;;;;;;3.47;2.50;;;15.00;99.90;;;;;;6196166;23;20858;-68
2021/08/03 01:08:05;;;;;;;2.67;1.83;;;15.00;99.90;;;;;;6159613;23;20824;-68
2021/08/03 01:10:43;;;;;;;3.40;2.00;;;14.90;99.90;;;;;;6196011;23;20417;-68
2021/08/03 01:13:22;;;;;;;3.33;3.03;;;14.90;99.90;;;;;;6160381;23;20491;-68
2021/08/03 01:15:56;;;;;;;3.37;1.90;;;14.90;99.90;;;;;;6159315;23;20375;-68
2021/08/03 01:18:35;;;;;;;4.30;2.50;;;14.80;99.90;;;;;;6158116;23;20394;-68
2021/08/03 01:21:36;;;;;;;3.63;2.83;;;14.90;99.90;;;;;;6160345;23;20196;-68
2021/08/03 01:24:35;;;;;;;4.30;2.88;;;14.90;99.90;;;;;;6158061;23;20489;-68
2021/08/03 01:27:26;;;;;;;3.53;2.63;;;15.00;99.90;;;;;;6196246;23;20447;-68
2021/08/03 01:29:59;;;;;;;3.20;2.70;;;14.90;99.90;;;;;;6159367;23;20763;-68
2021/08/03 01:32:31;;;;;;;3.50;2.67;;;14.90;99.90;;;;;;6195929;23;20416;-68
2021/08/03 01:35:03;;;;;;;3.60;2.90;;;14.80;99.90;;;;;;6196624;23;20811;-68
2021/08/03 01:37:34;;;;;;;3.40;3.10;;;14.80;99.90;;;;;;6196307;23;20388;-68
2021/08/03 01:40:12;;;;;;;4.83;2.80;;;14.70;99.90;;;;;;6159751;23;20406;-68
2021/08/03 01:42:45;;;;;;;4.80;3.00;;;14.70;99.90;;;;;;6159146;23;20879;-68
2021/08/03 01:45:19;;;;;;;3.77;3.10;;;14.70;99.90;;;;;;6159162;23;20415;-68
2021/08/03 01:47:48;;;;;;;4.03;3.27;;;14.60;99.90;;;;;;6195973;23;20718;-68
2021/08/03 01:50:19;;;;;;;3.33;2.70;;;14.60;99.90;;;;;;6158984;23;20398;-68
2021/08/03 01:52:57;;;;;;;3.88;3.47;;;14.60;99.90;;;;;;6194177;23;20439;-68
2021/08/03 01:55:29;;;;;;;3.30;3.00;;;14.60;99.90;;;;;;6159225;23;20176;-68
2021/08/03 01:58:03;;;;;;;3.67;3.37;;;14.60;99.90;;;;;;6158288;23;20938;-68
2021/08/03 02:00:44;;;;;;;3.50;3.20;;;14.60;99.90;;;;;;6158926;23;20404;-68
2021/08/03 02:03:17;;;;;;;3.43;3.13;;;14.60;99.90;;;;;;6158908;23;20415;-68
2021/08/03 02:05:47;;;;;;;4.63;3.77;;;14.50;99.90;;;;;;6158935;23;20418;-68
2021/08/03 02:08:29;;;;;;;4.47;2.97;;;14.50;99.90;;;;;;6159007;23;20919;-68
2021/08/03 02:11:10;;;;;;;12.90;4.40;;;14.40;99.90;;;;;;6195278;23;20420;-68
2021/08/03 02:13:38;;;;;;;3.40;3.10;;;14.40;99.90;;;;;;6158784;23;20419;-68
2021/08/03 02:16:15;;;;;;;4.13;3.70;;;14.30;99.90;;;;;;6158513;23;20374;-67
2021/08/03 02:18:47;;;;;;;4.30;3.90;;;14.30;99.90;;;;;;6159147;23;20873;-68
2021/08/03 02:21:22;;;;;;;4.53;3.50;;;14.30;99.90;;;;;;6159341;23;20517;-68
2021/08/03 02:23:52;;;;;;;4.53;3.43;;;14.30;99.90;;;;;;6158937;23;20414;-68
2021/08/03 02:26:22;;;;;;;8.50;4.23;;;14.20;99.90;;;;;;6159119;23;20386;-68
2021/08/03 02:28:50;;;;;;;5.15;4.50;;;14.30;99.90;;;;;;6184205;23;20415;-68
2021/08/03 02:31:26;;;;;;;6.60;4.90;;;14.30;99.90;;;;;;6195511;23;20207;-68
2021/08/03 02:34:01;;;;;;;5.53;3.80;;;14.30;99.90;;;;;;6158854;23;20382;-68
2021/08/03 02:36:32;;;;;;;4.97;3.93;;;14.30;99.90;;;;;;6158999;23;20382;-68
2021/08/03 02:39:04;;;;;;;4.53;3.40;;;14.30;99.90;;;;;;6159929;23;20902;-68
2021/08/03 02:41:33;;;;;;;4.30;3.90;;;14.30;99.90;;;;;;6153841;23;20757;-68
2021/08/03 02:44:06;;;;;;;4.20;3.80;;;14.30;99.90;;;;;;6155632;23;20407;-68
2021/08/03 02:46:39;;;;;;;4.60;4.13;;;14.20;99.90;;;;;;6165781;23;20380;-68
2021/08/03 02:49:13;;;;;;;4.50;4.10;;;14.20;99.90;;;;;;6156466;23;20397;-68
2021/08/03 02:51:42;;;;;;;4.30;3.90;;;14.20;99.90;;;;;;6157361;23;20451;-68
2021/08/03 02:54:23;;;;;;;4.10;3.70;;;14.20;99.90;;;;;;6157724;23;20390;-68
2021/08/03 02:56:56;;;;;;;4.07;3.67;;;14.10;99.90;;;;;;6155985;23;20667;-68
2021/08/03 02:59:26;;;;;;;4.70;4.30;;;14.10;99.90;;;;;;6167449;23;20385;-68
2021/08/03 03:01:58;;;;;;;4.47;3.90;;;14.10;99.90;;;;;;6155869;23;20414;-68
2021/08/03 03:04:33;;;;;;;4.47;4.00;;;14.10;99.90;;;;;;6154493;23;20438;-68
2021/08/03 03:07:10;;;;;;;4.07;3.67;;;14.10;99.90;;;;;;6156095;23;20176;-68
2021/08/03 03:09:41;;;;;;;5.00;4.10;;;14.10;99.90;;;;;;6166449;23;20404;-68
2021/08/03 03:12:10;;;;;;;6.37;3.83;;;14.20;99.90;;;;;;6155653;23;20192;-68
2021/08/03 03:14:41;;;;;;;5.77;4.20;;;14.20;99.90;;;;;;6167166;23;20452;-68
2021/08/03 03:17:13;;;;;;;5.53;5.03;;;14.10;99.90;;;;;;6156700;23;20448;-68
2021/08/03 03:19:42;;;;;;;4.10;3.50;;;14.10;99.90;;;;;;6155786;23;20900;-68
2021/08/03 03:22:13;;;;;;;5.80;4.13;;;14.00;99.90;;;;;;6167137;23;20784;-68
2021/08/03 03:24:45;;;;;;;5.97;4.30;;;14.00;99.90;;;;;;6155475;23;20503;-68
2021/08/03 03:27:16;;;;;;;6.30;4.10;;;14.00;99.90;;;;;;6155383;23;20413;-68
2021/08/03 03:29:46;;;;;;;4.30;3.47;;;14.00;99.90;;;;;;6156149;23;20772;-68
2021/08/03 03:32:16;;;;;;;5.37;4.20;;;13.90;99.90;;;;;;6166867;23;20413;-68
2021/08/03 03:34:46;;;;;;;4.00;3.70;;;13.90;99.90;;;;;;6155586;23;20411;-68
2021/08/03 03:37:15;;;;;;;5.60;3.63;;;13.90;99.90;;;;;;6155535;23;20445;-68
2021/08/03 03:39:44;;;;;;;4.10;3.70;;;13.90;99.90;;;;;;6157366;23;20407;-68
2021/08/03 03:42:14;;;;;;;4.50;4.10;;;13.90;99.90;;;;;;6130922;23;20746;-68
2021/08/03 03:44:43;;;;;;;4.20;3.80;;;13.90;99.90;;;;;;6130831;23;20415;-68
2021/08/03 03:47:20;;;;;;;4.00;3.57;;;13.90;99.90;;;;;;6130896;23;20417;-68
2021/08/03 03:49:55;;;;;;;5.00;3.83;;;13.80;99.90;;;;;;6167122;23;20395;-68
2021/08/03 03:52:25;;;;;;;5.30;4.80;;;13.80;99.90;;;;;;6166912;23;20432;-68
2021/08/03 03:54:55;;;;;;;4.43;4.03;;;13.80;99.90;;;;;;6155528;23;20495;-68
2021/08/03 03:57:25;;;;;;;5.93;3.70;;;13.80;99.90;;;;;;6167166;23;20408;-68
2021/08/03 03:59:57;;;;;;;3.87;3.53;;;13.80;99.90;;;;;;6132013;23;20719;-68
2021/08/03 04:02:29;;;;;;;5.13;4.00;;;13.80;99.90;;;;;;6166933;23;20417;-69
2021/08/03 04:05:02;;;;;;;6.10;5.43;;;13.70;99.90;;;;;;6130710;23;20429;-68
2021/08/03 04:07:31;;;;;;;4.53;4.00;;;13.70;99.90;;;;;;6157137;23;20480;-68
2021/08/03 04:10:05;;;;;;;5.40;4.50;;;13.70;99.90;;;;;;6130619;23;20428;-68
2021/08/03 04:12:34;;;;;;;9.47;7.57;;;13.70;99.90;;;;;;6130584;23;20532;-68
2021/08/03 04:15:03;;;;;;;12.63;10.70;;;13.70;99.90;;;;;;6166930;23;20447;-68
2021/08/03 04:17:34;;;;;;;20.08;17.08;;;13.70;99.90;;;;;;6154766;23;20733;-68
2021/08/03 04:20:04;;;;;;;6.40;5.77;;;13.70;99.90;;;;;;6166980;23;20244;-68
2021/08/03 04:22:32;;;;;;;7.50;6.47;;;13.80;99.90;;;;;;6165702;23;20412;-68
2021/08/03 04:25:00;;;;;;;6.27;5.40;;;13.80;99.90;;;;;;6166511;23;20528;-68
2021/08/03 04:27:28;;;;;;;5.77;4.43;;;13.80;99.90;;;;;;6166552;23;20429;-68
2021/08/03 04:29:56;;;;;;;5.23;4.73;;;13.80;99.90;;;;;;6156904;23;20411;-68
2021/08/03 04:32:24;;;;;;;6.43;4.83;;;13.80;99.90;;;;;;6166468;23;20421;-68
2021/08/03 04:34:53;;;;;;;4.33;3.93;;;13.80;99.90;;;;;;6166480;23;20381;-68
2021/08/03 04:37:22;;;;;;;6.30;4.30;;;13.80;99.90;;;;;;6167008;23;20375;-68
2021/08/03 04:39:50;;;;;;;4.77;4.00;;;13.80;99.90;;;;;;6166385;23;20438;-69
2021/08/03 04:42:18;;;;;;;7.03;4.30;;;13.80;99.90;;;;;;6196010;23;20798;-68
2021/08/03 04:44:46;;;;;;;5.00;4.33;;;13.90;99.90;;;;;;6196602;23;20931;-68
2021/08/03 04:47:14;;;;;;;5.80;4.67;;;13.90;99.90;;;;;;6186432;23;20396;-69
2021/08/03 04:49:42;;;;;;;4.67;4.27;;;13.90;99.90;;;;;;6195997;23;20435;-68
2021/08/03 04:52:11;;;;;;;4.47;4.07;;;13.90;99.90;;;;;;6196012;23;20477;-68
2021/08/03 04:54:39;;;;;;;6.25;4.40;;;13.90;99.90;;;;;;6196233;23;20472;-68
2021/08/03 04:57:08;;;;;;;5.23;4.73;;;13.90;99.90;;;;;;6159612;23;20179;-68
2021/08/03 04:59:36;;;;;;;5.40;4.03;;;13.90;99.90;;;;;;6195973;23;20412;-68
2021/08/03 05:02:04;;;;;;;5.60;4.97;;;13.90;99.90;;;;;;6196037;23;20498;-68
2021/08/03 05:04:34;;;;;;;6.20;4.87;;;13.90;99.90;;;;;;6195912;23;20400;-68
2021/08/03 05:07:05;;;;;;;6.23;3.90;;;14.00;99.90;;;;;;6195967;23;20364;-68
2021/08/03 05:09:34;;;;;;;4.70;4.30;;;14.00;99.90;;;;;;6195938;23;20404;-68
2021/08/03 05:12:03;;;;;;;4.30;3.90;;;14.00;99.90;;;;;;6195731;23;20439;-68
2021/08/03 05:14:32;;;;;;;5.87;4.80;;;14.00;99.90;;;;;;6159457;23;20427;-68
2021/08/03 05:17:00;;;;;;;6.20;4.50;;;14.00;99.90;;;;;;6196631;23;20953;-68
2021/08/03 05:19:28;;;;;;;5.13;4.20;;;14.00;99.90;;;;;;6159501;23;20390;-68
2021/08/03 05:21:57;;;;;;;5.17;4.77;;;14.00;99.90;;;;;;6195927;23;20470;-68
2021/08/03 05:24:26;;;;;;;5.07;4.53;;;14.00;99.90;;;;;;6195978;23;20407;-68
2021/08/03 05:26:56;;;;;;;5.67;4.30;;;14.00;99.90;;;;;;6196461;23;20485;-68
2021/08/03 05:29:24;;;;;;;4.83;4.40;;;14.00;99.90;;;;;;6196556;23;20687;-68
2021/08/03 05:31:53;;;;;;;4.40;3.63;;;14.10;99.90;;;;;;6185701;23;20432;-68
2021/08/03 05:34:21;;;;;;;5.22;4.40;;;14.10;99.90;;;;;;6194393;23;20870;-68
2021/08/03 05:36:49;;;;;;;5.40;4.23;;;14.20;99.90;;;;;;6195820;23;20215;-68
2021/08/03 05:39:17;;;;;;;5.32;4.57;;;14.20;99.90;;;;;;6194368;23;20481;-68
2021/08/03 05:41:45;;;;;;;5.43;4.60;;;14.30;99.90;;;;;;6195457;23;20195;-68
2021/08/03 05:44:15;;;;;;;4.30;3.57;;;14.30;99.90;;;;;;6195957;23;20854;-68
2021/08/03 05:46:43;;;;;;;5.97;4.83;;;14.30;99.90;;;;;;6195640;23;20451;-68
2021/08/03 05:49:11;;;;;;;7.87;4.40;;;14.40;99.90;;;;;;6195707;23;20389;-68
2021/08/03 05:51:39;;;;;;;4.33;3.93;;;14.40;99.90;;;;;;6185660;23;20933;-68
2021/08/03 05:54:07;;;;;;;5.57;4.97;;;14.40;99.90;;;;;;6195999;23;20712;-68
2021/08/03 05:56:37;;;;;;;6.70;4.20;;;14.50;99.90;;;;;;6186003;23;20389;-68
2021/08/03 05:59:06;;;;;;;5.70;3.77;;;14.70;99.90;;;;;;6159615;23;20394;-68
2021/08/03 06:01:35;;;;;;;4.97;4.30;;;14.90;99.90;;;;;;6196121;23;20398;-69
2021/08/03 06:04:04;;;;;;;4.80;4.40;;;15.10;99.90;;;;;;6196486;23;20411;-68
2021/08/03 06:06:38;;;;;;;6.33;4.17;;;15.30;99.90;;;;;;6185868;23;20470;-68
2021/08/03 06:09:10;;;;;;;4.50;4.10;;;15.60;99.90;;;;;;6195644;23;20471;-68
2021/08/03 06:11:44;;;;;;;4.90;4.07;;;15.80;99.90;;;;;;6159575;23;20439;-69
2021/08/03 06:14:13;;;;;;;5.50;3.43;;;16.00;99.90;;;;;;6186026;23;20747;-68
2021/08/03 06:16:44;;;;;;;4.43;4.00;;;16.30;99.90;;;;;;6194573;23;20487;-69
2021/08/03 06:19:15;;;;;;;4.33;3.50;;;16.60;99.90;;;;;;6195979;23;20588;-68
2021/08/03 06:21:46;;;;;;;4.17;3.40;;;16.90;99.90;;;;;;6195388;23;20420;-68
2021/08/03 06:24:17;;;;;;;3.30;3.00;;;17.20;99.90;;;;;;6158652;23;20499;-69
2021/08/03 06:26:45;;;;;;;3.13;2.83;;;17.50;99.90;;;;;;6195877;23;20416;-69
2021/08/03 06:29:14;;;;;;;4.40;3.10;;;17.70;99.90;;;;;;6159033;23;20446;-68
2021/08/03 06:31:45;;;;;;;2.83;2.07;;;18.00;99.90;;;;;;6195382;23;20503;-68
2021/08/03 06:34:13;;;;;;;3.40;2.83;;;18.20;99.90;;;;;;6195756;23;20388;-68
2021/08/03 06:36:41;;;;;;;3.20;2.60;;;18.50;99.90;;;;;;6195733;23;20475;-68
2021/08/03 06:39:09;;;;;;;3.50;3.03;;;18.70;99.90;;;;;;6194524;23;20478;-69
2021/08/03 06:41:40;;;;;;;3.70;2.87;;;19.00;99.90;;;;;;6195409;23;20451;-69
2021/08/03 06:44:17;;;;;;;4.10;2.30;;;19.20;99.90;;;;;;6195991;23;20380;-68
2021/08/03 06:46:49;;;;;;;3.10;2.50;;;19.50;99.90;;;;;;6195519;23;20431;-68
2021/08/03 06:49:19;;;;;;;2.60;2.40;;;19.70;99.90;;;;;;6185470;23;20607;-69
2021/08/03 06:51:49;;;;;;;3.95;2.10;;;19.80;99.90;;;;;;6195319;23;20661;-68
2021/08/03 06:54:18;;;;;;;2.17;1.70;;;20.00;99.90;;;;;;6159228;23;20231;-69
2021/08/03 06:56:51;;;;;;;3.07;2.20;;;20.20;99.90;;;;;;6185289;23;20415;-68
2021/08/03 06:59:27;;;;;;;3.40;1.80;;;20.40;99.90;;;;;;6196056;23;20483;-68
2021/08/03 07:02:03;;;;;;;3.80;1.60;;;20.50;99.90;;;;;;6195718;23;20478;-68
2021/08/03 07:04:37;;;;;;;2.33;1.60;;;20.70;99.90;;;;;;6195411;23;20384;-69
2021/08/03 07:07:05;;;;;;;3.70;2.23;;;20.90;99.90;;;;;;6195719;23;20875;-69
2021/08/03 07:09:33;;;;;;;2.27;2.07;;;20.90;99.90;;;;;;6195913;23;20438;-68
2021/08/03 07:12:05;;;;;;;2.37;1.90;;;21.00;99.90;;;;;;6195239;23;20435;-69
2021/08/03 07:14:34;;;;;;;1.90;1.70;;;21.10;99.90;;;;;;6195761;23;20819;-69
2021/08/03 07:17:05;;;;;;;1.40;1.20;;;21.20;99.90;;;;;;6195358;23;20395;-70
2021/08/03 07:19:34;;;;;;;2.23;1.73;;;21.30;99.90;;;;;;6195437;23;20381;-68
2021/08/03 07:22:02;;;;;;;3.00;1.85;;;21.30;99.90;;;;;;6194095;23;20723;-68
2021/08/03 07:24:32;;;;;;;2.97;1.70;;;21.40;99.90;;;;;;6195878;23;20239;-68
2021/08/03 07:27:00;;;;;;;3.10;2.00;;;21.30;99.90;;;;;;6194367;23;20531;-68
2021/08/03 07:29:28;;;;;;;3.20;1.60;;;21.20;99.90;;;;;;6195641;23;20512;-69
2021/08/03 07:31:56;;;;;;;4.03;1.83;;;21.00;99.90;;;;;;6195763;23;20448;-70
2021/08/03 07:34:26;;;;;;;2.57;1.30;;;20.90;99.90;;;;;;6195520;23;20723;-70
2021/08/03 07:36:54;;;;;;;2.20;1.67;;;20.70;99.90;;;;;;6160502;23;20416;-69
2021/08/03 07:39:22;;;;;;;3.10;1.90;;;20.50;99.90;;;;;;6197100;23;20809;-69
2021/08/03 07:41:51;;;;;;;2.23;1.90;;;20.50;99.90;;;;;;6186764;23;20444;-69
2021/08/03 07:44:19;;;;;;;3.03;1.57;;;20.50;99.90;;;;;;6160406;23;20499;-69
2021/08/03 07:46:47;;;;;;;2.57;1.90;;;20.40;99.90;;;;;;6160415;23;20946;-69
2021/08/03 07:49:19;;;;;;;2.90;1.83;;;20.50;99.90;;;;;;6186756;23;20394;-69
2021/08/03 07:51:50;;;;;;;2.50;1.50;;;20.60;99.90;;;;;;6196981;23;20423;-69
2021/08/03 07:54:19;;;;;;;2.10;1.83;;;20.50;99.90;;;;;;6196759;23;20777;-69
2021/08/03 07:56:47;;;;;;;1.80;1.50;;;20.50;99.90;;;;;;6196314;23;20486;-68
2021/08/03 07:59:15;;;;;;;3.10;1.57;;;20.50;99.90;;;;;;6197436;23;20205;-69
2021/08/03 08:01:43;;;;;;;2.40;1.80;;;20.50;99.90;;;;;;6187336;23;20792;-69
2021/08/03 08:04:12;;;;;;;1.73;1.50;;;20.50;99.90;;;;;;6197652;23;20399;-69
2021/08/03 08:06:40;;;;;;;3.30;1.60;;;20.50;99.90;;;;;;6197604;23;20464;-69
2021/08/03 08:09:19;;;;;;;2.57;1.50;;;20.60;99.90;;;;;;6160808;23;20431;-69
2021/08/03 08:11:47;;;;;;;1.40;1.00;;;20.80;99.90;;;;;;6197353;23;20455;-69
2021/08/03 08:14:15;;;;;;;1.97;1.20;;;20.90;99.90;;;;;;6197596;23;20487;-68
2021/08/03 08:16:44;;;;;;;1.30;0.97;;;21.10;99.90;;;;;;6160790;23;20416;-69
2021/08/03 08:19:12;;;;;;;2.30;1.10;;;21.10;99.90;;;;;;6160930;23;20408;-69
2021/08/03 08:21:40;;;;;;;1.40;1.00;;;20.90;99.90;;;;;;6197345;23;20518;-69
2021/08/03 08:24:08;;;;;;;2.00;1.33;;;20.80;99.90;;;;;;6187422;23;20400;-69
2021/08/03 08:26:37;;;;;;;3.87;1.20;;;20.70;99.90;;;;;;6197179;23;20404;-69
2021/08/03 08:29:05;;;;;;;2.00;1.30;;;20.70;99.90;;;;;;6196162;23;20483;-69
2021/08/03 08:31:34;;;;;;;6.40;1.33;;;20.80;99.90;;;;;;6160325;23;20196;-69
2021/08/03 08:34:02;;;;;;;2.30;1.10;;;20.80;99.90;;;;;;6196111;23;20403;-69
2021/08/03 08:36:31;;;;;;;2.03;1.30;;;20.70;99.90;;;;;;6197317;23;20223;-69
2021/08/03 08:38:59;;;;;;;1.97;1.10;;;20.70;99.90;;;;;;6160633;23;20914;-69
2021/08/03 08:41:27;;;;;;;1.93;1.10;;;20.80;99.90;;;;;;6197146;23;20431;-69
2021/08/03 08:43:57;;;;;;;0.90;0.80;;;21.00;99.90;;;;;;6160938;23;20417;-69
2021/08/03 08:46:25;;;;;;;2.20;1.10;;;21.10;99.90;;;;;;6160687;23;20479;-69
2021/08/03 08:48:53;;;;;;;1.80;0.90;;;21.30;99.90;;;;;;6197094;23;20455;-68
2021/08/03 08:51:22;;;;;;;1.30;0.90;;;21.40;99.90;;;;;;6187179;23;20415;-68
2021/08/03 08:53:50;;;;;;;1.20;0.90;;;21.40;99.90;;;;;;6197323;23;20719;-69
2021/08/03 08:56:19;;;;;;;1.90;1.30;;;21.50;99.90;;;;;;6196671;23;20396;-69
2021/08/03 08:58:47;;;;;;;1.40;1.10;;;21.60;99.90;;;;;;6197046;23;20792;-68
2021/08/03 09:01:16;;;;;;;1.30;0.93;;;21.70;99.90;;;;;;6197123;23;20188;-69
2021/08/03 09:03:47;;;;;;;1.47;0.90;;;21.70;99.90;;;;;;6160695;23;20414;-69
2021/08/03 09:06:20;;;;;;;2.00;1.10;;;21.60;99.90;;;;;;6186435;23;20408;-68
2021/08/03 09:08:50;;;;;;;2.57;0.97;;;21.50;99.90;;;;;;6197641;23;20424;-69
2021/08/03 09:11:20;;;;;;;4.50;1.00;;;21.40;99.90;;;;;;6196396;23;20511;-69
2021/08/03 09:13:54;;;;;;;1.63;0.90;;;21.30;99.90;;;;;;6196998;23;20436;-69
2021/08/03 09:16:27;;;;;;;1.50;0.80;;;21.30;99.80;;;;;;6197814;23;20384;-69
2021/08/03 09:18:57;;;;;;;2.07;1.20;;;21.10;99.70;;;;;;6160238;23;20859;-69
2021/08/03 09:21:26;;;;;;;1.20;0.90;;;21.00;99.70;;;;;;6196782;23;20422;-69
2021/08/03 09:23:56;;;;;;;1.30;0.80;;;21.00;99.70;;;;;;6159701;23;20455;-69
2021/08/03 09:26:40;;;;;;;2.50;1.00;;;21.00;99.70;;;;;;6159601;23;20491;-69
2021/08/03 09:29:10;;;;;;;1.60;1.00;;;21.00;99.50;;;;;;6195151;23;20404;-68
2021/08/03 09:31:41;;;;;;;1.80;1.10;;;21.20;99.20;;;;;;6196174;23;20184;-68
2021/08/03 09:34:11;;;;;;;1.77;1.13;;;21.20;99.00;;;;;;6159299;23;20437;-69
2021/08/03 09:36:47;;;;;;;1.60;1.10;;;21.20;98.60;;;;;;6195931;23;20495;-69
2021/08/03 09:39:39;;;;;;;1.30;1.00;;;21.20;98.60;;;;;;6159411;23;20430;-69
2021/08/03 09:42:10;;;;;;;2.13;1.00;;;21.10;98.60;;;;;;6195763;23;20451;-69
2021/08/03 09:44:45;;;;;;;5.63;1.20;;;21.10;98.40;;;;;;6159420;23;20451;-69
2021/08/03 09:47:15;;;;;;;1.33;0.80;;;21.10;98.40;;;;;;6186089;23;20443;-69
2021/08/03 09:49:48;;;;;;;1.73;1.00;;;21.10;98.30;;;;;;6159409;23;20416;-69
2021/08/03 09:52:18;;;;;;;1.93;1.10;;;21.20;98.10;;;;;;6196110;23;20420;-69
2021/08/03 09:54:48;;;;;;;1.30;1.07;;;21.30;98.10;;;;;;6195796;23;20463;-69
2021/08/03 09:57:21;;;;;;;2.10;0.90;;;21.30;98.00;;;;;;6195877;23;20811;-69
2021/08/03 09:59:50;;;;;;;1.40;1.00;;;21.30;97.90;;;;;;6195977;23;20380;-69
2021/08/03 10:02:22;;;;;;;1.23;1.03;;;21.20;97.90;;;;;;6195531;23;20899;-69
2021/08/03 10:04:52;;;;;;;2.00;1.40;;;21.20;97.90;;;;;;6158112;23;20411;-69
2021/08/03 10:07:20;;;;;;;1.77;0.80;;;21.30;96.90;;;;;;6195487;23;20168;-69
2021/08/03 10:09:50;;;;;;;1.13;1.00;;;21.30;97.20;;;;;;6159243;23;20444;-69
2021/08/03 10:12:19;;;;;;;1.20;0.70;;;21.20;97.40;;;;;;6195465;23;20420;-69
2021/08/03 10:14:47;;;;;;;1.73;1.03;;;21.20;97.50;;;;;;6195457;23;20490;-69
2021/08/03 10:17:15;;;;;;;1.80;1.10;;;21.20;97.50;;;;;;6185488;23;20407;-69
2021/08/03 10:19:46;;;;;;;1.30;0.90;;;21.20;97.50;;;;;;6195491;23;20411;-69
2021/08/03 10:22:20;;;;;;;1.70;1.03;;;21.20;97.40;;;;;;6195907;23;20416;-69
2021/08/03 10:24:56;;;;;;;1.47;1.10;;;21.20;97.50;;;;;;6195912;23;20491;-69
2021/08/03 10:27:38;;;;;;;2.20;1.20;;;21.20;97.40;;;;;;6194809;23;20499;-69
2021/08/03 10:30:08;;;;;;;1.47;1.00;;;21.30;97.10;;;;;;6195566;23;20179;-70
2021/08/03 10:32:39;;;;;;;1.50;1.00;;;21.40;97.00;;;;;;6159084;23;20439;-70
2021/08/03 10:35:15;;;;;;;1.93;1.03;;;21.50;97.00;;;;;;6185980;23;20392;-70
2021/08/03 10:38:06;;;;;;;2.10;1.20;;;21.60;97.00;;;;;;6159228;23;20399;-70
2021/08/03 10:41:16;;;;;;;2.27;1.00;;;21.70;96.70;;;;;;6195867;23;20442;-70
2021/08/03 10:43:51;;;;;;;1.13;0.90;;;21.80;96.50;;;;;;6195890;23;20406;-70
2021/08/03 10:46:39;;;;;;;1.10;0.90;;;21.80;96.40;;;;;;6195791;23;20383;-70
2021/08/03 10:49:08;;;;;;;2.20;1.53;;;21.80;96.20;;;;;;6159153;23;20876;-70
2021/08/03 10:51:44;;;;;;;1.43;0.90;;;21.80;96.20;;;;;;6158956;23;20439;-70
2021/08/03 10:54:16;;;;;;;1.57;1.20;;;21.90;96.10;;;;;;6185862;23;20463;-70
2021/08/03 10:57:14;;;;;;;1.83;0.80;;;22.00;96.10;;;;;;6159124;23;20503;-70
2021/08/03 10:59:42;;;;;;;1.47;1.00;;;22.00;95.80;;;;;;6184720;23;20443;-70
2021/08/03 11:02:31;;;;;;;1.48;1.10;;;22.10;95.80;;;;;;6158817;23;20413;-70
2021/08/03 11:05:00;;;;;;;2.70;1.10;;;22.10;95.80;;;;;;6195600;23;20172;-70
2021/08/03 11:07:31;;;;;;;2.80;0.93;;;22.20;95.60;;;;;;6196034;23;20720;-70
2021/08/03 11:10:00;;;;;;;1.47;1.00;;;22.30;95.60;;;;;;6196495;23;20416;-70
2021/08/03 11:12:36;;;;;;;2.10;1.10;;;22.40;95.60;;;;;;6197371;23;20416;-70
2021/08/03 11:15:35;;;;;;;2.03;1.30;;;22.50;95.50;;;;;;6188434;23;20414;-70
2021/08/03 11:18:06;;;;;;;1.87;1.10;;;22.60;95.50;;;;;;6197208;23;20805;-70
2021/08/03 11:21:02;;;;;;;1.40;1.30;;;22.60;95.30;;;;;;6197630;23;20415;-70
2021/08/03 11:23:58;;;;;;;1.70;1.10;;;22.70;94.90;;;;;;6197598;23;20786;-70
2021/08/03 11:26:28;;;;;;;1.65;1.25;;;22.70;94.90;;;;;;6196068;23;20983;-70
2021/08/03 11:28:59;;;;;;;2.30;1.20;;;22.80;93.20;;;;;;6196971;23;20231;-70
2021/08/03 11:31:47;;;;;;;1.20;1.10;;;22.80;93.30;;;;;;6160719;23;20435;-70
2021/08/03 11:34:19;;;;;;;1.10;0.90;;;22.70;93.40;;;;;;6197658;23;20760;-70
2021/08/03 11:37:09;;;;;;;1.43;1.10;;;22.60;93.50;;;;;;6197396;23;20412;-70
2021/08/03 11:39:41;;;;;;;3.30;1.30;;;22.50;93.50;;;;;;6197696;23;20467;-70
2021/08/03 11:42:10;;;;;;;1.47;0.90;;;22.40;93.50;;;;;;6196851;23;20435;-70
2021/08/03 11:44:40;;;;;;;1.30;1.20;;;22.30;93.50;;;;;;6197005;23;20785;-70
2021/08/03 11:47:14;;;;;;;2.40;1.30;;;22.30;93.70;;;;;;6160582;23;20415;-70
2021/08/03 11:49:45;;;;;;;1.43;1.33;;;22.20;93.70;;;;;;6160465;23;20478;-70
2021/08/03 11:52:16;;;;;;;1.30;1.20;;;22.20;93.90;;;;;;6196374;23;20745;-70
2021/08/03 11:54:49;;;;;;;1.60;1.50;;;22.20;93.90;;;;;;6196953;23;20384;-70
2021/08/03 11:57:24;;;;;;;1.70;1.20;;;22.20;94.10;;;;;;6196894;23;20342;-70
2021/08/03 12:00:09;;;;;;;1.20;1.10;;;22.30;94.10;;;;;;6196854;23;20156;-70
2021/08/03 12:02:38;;;;;;;1.63;1.20;;;22.30;94.00;;;;;;6197046;23;20424;-70
2021/08/03 12:05:26;;;;;;;1.50;1.30;;;22.30;93.90;;;;;;6197330;23;20384;-70
2021/08/03 12:08:05;;;;;;;1.67;1.43;;;22.40;93.80;;;;;;6197169;23;20384;-70
2021/08/03 12:10:36;;;;;;;1.87;1.53;;;22.40;93.70;;;;;;6160124;23;20521;-70
2021/08/03 12:13:05;;;;;;;2.03;1.67;;;22.50;93.70;;;;;;6196780;23;20502;-70
2021/08/03 12:15:45;;;;;;;1.37;1.27;;;22.50;93.50;;;;;;6197264;23;20788;-70
2021/08/03 12:18:13;;;;;;;2.77;1.40;;;22.50;93.40;;;;;;6197020;23;20839;-70
2021/08/03 12:20:43;;;;;;;1.50;1.30;;;22.50;93.30;;;;;;6195881;23;20400;-70
2021/08/03 12:23:23;;;;;;;2.40;1.40;;;22.40;92.60;;;;;;6196885;23;20187;-70
2021/08/03 12:25:55;;;;;;;1.37;1.27;;;22.40;92.70;;;;;;6186968;23;20391;-70
2021/08/03 12:28:41;;;;;;;2.13;1.20;;;22.30;92.80;;;;;;6160195;23;20443;-70
2021/08/03 12:31:26;;;;;;;1.40;1.00;;;22.40;92.90;;;;;;6160131;23;20447;-70
2021/08/03 12:33:56;;;;;;;1.60;1.40;;;22.40;92.90;;;;;;6197065;23;20391;-70
2021/08/03 12:36:24;;;;;;;1.60;1.37;;;22.50;93.00;;;;;;6160286;23;20727;-70
2021/08/03 12:39:06;;;;;;;1.10;1.00;;;22.60;93.00;;;;;;6160266;23;20436;-70
2021/08/03 12:41:37;;;;;;;1.40;1.20;;;22.60;92.80;;;;;;6186514;23;20447;-71
2021/08/03 12:44:05;;;;;;;1.27;1.17;;;22.60;92.80;;;;;;6160193;23;20774;-70
2021/08/03 12:46:36;;;;;;;1.27;1.10;;;22.70;92.60;;;;;;6196707;23;20492;-70
2021/08/03 12:49:06;;;;;;;2.60;1.90;;;22.80;92.50;;;;;;6195183;23;20407;-70
2021/08/03 12:51:35;;;;;;;1.93;1.30;;;22.90;91.40;;;;;;6186548;23;20199;-70
2021/08/03 12:54:12;;;;;;;2.65;1.50;;;23.00;91.70;;;;;;6196187;23;20427;-70
2021/08/03 12:56:57;;;;;;;1.57;1.43;;;23.20;92.00;;;;;;6196771;23;20156;-70
2021/08/03 12:59:33;;;;;;;1.37;1.10;;;23.30;92.10;;;;;;6184594;23;20499;-70
2021/08/03 13:02:01;;;;;;;1.80;1.43;;;23.30;92.30;;;;;;6196360;23;20930;-70
2021/08/03 13:04:29;;;;;;;1.67;1.37;;;23.30;92.30;;;;;;6159940;23;20415;-70
2021/08/03 13:07:00;;;;;;;1.83;1.23;;;23.30;92.30;;;;;;6186499;23;20720;-70
2021/08/03 13:09:29;;;;;;;1.70;1.40;;;23.30;92.20;;;;;;6196069;23;20423;-70